Time;durP1;ratioP1;P1;durP2;ratioP2;P2;SDS_P1;SDS_P2;PMS_P1;PMS_P2;Temp;Humidity;BMP_temperature;BMP_pressure;BME280_temperature;BME280_humidity;BME280_pressure;Samples;Min_cycle;Max_cycle;Signal;HPM_P1;HPM_P2
2021/10/27 00:02:19;;;;;;;4.78;0.73;;;;;;;16.77;67.06;99304.72;5064467;28;20044;-67
2021/10/27 00:04:45;;;;;;;7.93;0.93;;;;;;;16.86;66.82;99313.06;5061716;28;20440;-67
2021/10/27 00:07:11;;;;;;;3.22;0.85;;;;;;;16.83;66.88;99314.44;5043228;28;20550;-67
2021/10/27 00:09:37;;;;;;;3.65;0.90;;;;;;;16.75;67.13;99320.53;5056192;28;20127;-67
2021/10/27 00:12:03;;;;;;;6.63;1.13;;;;;;;16.55;67.69;99321.63;5052491;28;20475;-67
2021/10/27 00:14:29;;;;;;;3.65;0.90;;;;;;;16.77;66.92;99321.06;5054136;28;20036;-67
2021/10/27 00:16:55;;;;;;;4.80;0.90;;;;;;;16.89;66.83;99315.19;5059170;28;20383;-67
2021/10/27 00:19:21;;;;;;;5.82;1.17;;;;;;;16.89;66.59;99314.34;5059369;28;20033;-67
2021/10/27 00:21:47;;;;;;;4.63;0.70;;;;;;;16.82;66.98;99328.34;5060822;28;20481;-67
2021/10/27 00:24:13;;;;;;;6.63;0.98;;;;;;;16.60;67.70;99337.88;5060444;28;20029;-67
2021/10/27 00:26:39;;;;;;;6.53;1.17;;;;;;;16.89;66.72;99325.25;5056593;28;20526;-67
2021/10/27 00:29:06;;;;;;;3.60;0.70;;;;;;;16.95;66.60;99329.50;5063423;28;20028;-67
2021/10/27 00:31:31;;;;;;;3.72;0.73;;;;;;;16.86;66.98;99340.25;5045922;28;20417;-67
2021/10/27 00:33:57;;;;;;;3.40;0.80;;;;;;;16.79;67.53;99328.94;5058490;28;20028;-67
2021/10/27 00:36:22;;;;;;;4.88;0.73;;;;;;;16.97;66.98;99319.16;5054005;28;20210;-67
2021/10/27 00:38:48;;;;;;;4.22;0.77;;;;;;;16.96;66.99;99331.94;5056312;28;20433;-67
2021/10/27 00:41:16;;;;;;;3.75;0.70;;;;;;;16.86;67.67;99331.25;5057942;28;20474;-67
2021/10/27 00:43:41;;;;;;;3.72;0.85;;;;;;;17.02;67.36;99324.53;5051881;28;20075;-67
2021/10/27 00:46:20;;;;;;;3.17;0.88;;;;;;;16.83;68.53;99332.69;5048431;28;20838;-67
2021/10/27 00:48:48;;;;;;;5.25;1.30;;;;;;;16.86;68.30;99321.22;5059601;28;20044;-67
2021/10/27 00:51:14;;;;;;;8.25;1.15;;;;;;;17.01;67.75;99327.56;5060650;28;20047;-67
2021/10/27 00:53:42;;;;;;;2.53;0.75;;;;;;;16.67;69.11;99321.19;5058924;28;20028;-67
2021/10/27 00:56:08;;;;;;;4.97;0.75;;;;;;;16.78;68.69;99317.22;5060891;28;20123;-67
2021/10/27 00:58:36;;;;;;;2.10;0.60;;;;;;;16.58;69.29;99309.38;5052752;28;20029;-67
2021/10/27 01:01:02;;;;;;;4.32;0.80;;;;;;;16.73;68.60;99308.31;5054122;28;20021;-67
2021/10/27 01:03:27;;;;;;;3.17;0.60;;;;;;;16.67;69.03;99323.91;5056032;28;20040;-67
2021/10/27 01:05:53;;;;;;;2.38;0.70;;;;;;;16.88;67.83;99313.56;5058270;28;20028;-67
2021/10/27 01:08:20;;;;;;;2.45;0.73;;;;;;;16.89;68.05;99319.78;5057000;28;20043;-67
2021/10/27 01:10:46;;;;;;;2.80;0.85;;;;;;;16.72;68.68;99325.75;5059265;28;20078;-67
2021/10/27 01:13:11;;;;;;;2.78;0.50;;;;;;;16.60;68.86;99316.13;5065835;28;20281;-67
2021/10/27 01:15:38;;;;;;;1.48;0.40;;;;;;;16.78;68.10;99319.13;5060087;28;20033;-67
2021/10/27 01:18:04;;;;;;;2.13;0.70;;;;;;;17.09;67.14;99316.78;5060361;28;20040;-67
2021/10/27 01:20:30;;;;;;;3.55;0.68;;;;;;;16.70;68.42;99320.63;5063778;28;20029;-67
2021/10/27 01:22:55;;;;;;;4.28;0.60;;;;;;;16.92;67.94;99316.47;5059126;28;20047;-67
2021/10/27 01:25:21;;;;;;;3.17;0.63;;;;;;;16.94;67.58;99323.25;5061933;28;20430;-67
2021/10/27 01:27:48;;;;;;;5.18;0.65;;;;;;;16.77;68.08;99321.06;5064699;28;20037;-67
2021/10/27 01:30:17;;;;;;;7.20;0.90;;;;;;;16.94;67.62;99319.72;5060059;28;20025;-67
2021/10/27 01:32:44;;;;;;;2.95;0.70;;;;;;;16.56;68.43;99296.06;5054824;28;20485;-67
2021/10/27 01:35:11;;;;;;;5.13;0.70;;;;;;;16.98;67.15;99307.16;5052931;28;20394;-67
2021/10/27 01:37:38;;;;;;;3.55;0.60;;;;;;;16.59;68.28;99297.38;5058409;28;20032;-67
2021/10/27 01:40:05;;;;;;;3.97;0.55;;;;;;;16.73;67.91;99298.28;5055453;28;20040;-68
2021/10/27 01:42:31;;;;;;;4.93;0.70;;;;;;;16.93;67.16;99301.78;5055171;28;20055;-68
2021/10/27 01:44:57;;;;;;;3.30;0.60;;;;;;;16.49;68.25;99299.16;5066859;28;20025;-67
2021/10/27 01:47:22;;;;;;;4.57;0.70;;;;;;;16.62;67.92;99297.59;5058788;28;20078;-66
2021/10/27 01:49:49;;;;;;;3.90;0.82;;;;;;;16.58;67.78;99293.84;5064834;28;20047;-66
2021/10/27 01:52:16;;;;;;;4.85;0.70;;;;;;;16.83;66.97;99298.13;5061267;28;20033;-66
2021/10/27 01:54:41;;;;;;;4.18;0.70;;;;;;;16.77;67.10;99287.59;5043399;28;20020;-67
2021/10/27 01:57:08;;;;;;;4.75;0.77;;;;;;;16.87;66.56;99287.47;5056103;28;20101;-67
2021/10/27 01:59:34;;;;;;;3.83;0.70;;;;;;;16.95;66.18;99294.97;5053940;28;20043;-67
2021/10/27 02:02:00;;;;;;;4.30;0.80;;;;;;;16.90;66.53;99291.50;5059270;28;20066;-67
2021/10/27 02:04:25;;;;;;;8.70;1.00;;;;;;;16.86;66.54;99280.41;5056754;28;20087;-66
2021/10/27 02:06:51;;;;;;;5.32;0.70;;;;;;;17.12;65.88;99280.81;5048077;28;20088;-67
2021/10/27 02:09:17;;;;;;;5.70;0.77;;;;;;;17.05;66.06;99274.16;5066938;28;20540;-66
2021/10/27 02:11:43;;;;;;;9.98;1.23;;;;;;;16.91;66.36;99280.34;5053059;28;20033;-66
2021/10/27 02:14:09;;;;;;;5.80;0.73;;;;;;;16.96;66.38;99277.53;5057061;28;20024;-67
2021/10/27 02:16:35;;;;;;;9.45;0.88;;;;;;;16.87;66.66;99278.50;5067964;28;20552;-66
2021/10/27 02:19:00;;;;;;;4.68;0.93;;;;;;;16.95;66.39;99281.34;5043813;28;20029;-67
2021/10/27 02:21:26;;;;;;;6.15;1.05;;;;;;;16.94;66.61;99276.19;5057662;28;20108;-66
2021/10/27 02:23:52;;;;;;;6.30;0.93;;;;;;;16.66;67.67;99274.16;5051926;28;20089;-67
2021/10/27 02:26:21;;;;;;;4.05;1.00;;;;;;;16.97;66.54;99275.63;5052521;28;20070;-67
2021/10/27 02:28:47;;;;;;;8.07;1.10;;;;;;;16.80;67.10;99270.72;5053859;28;20394;-67
2021/10/27 02:31:13;;;;;;;7.40;1.38;;;;;;;16.93;66.62;99267.25;5057703;28;20040;-67
2021/10/27 02:33:39;;;;;;;12.05;1.23;;;;;;;16.73;67.32;99273.78;5064658;28;20455;-66
2021/10/27 02:36:05;;;;;;;6.43;1.30;;;;;;;16.70;67.63;99268.94;5041187;28;20064;-67
2021/10/27 02:38:31;;;;;;;7.32;1.27;;;;;;;16.76;67.01;99267.75;5053095;28;20524;-66
2021/10/27 02:40:56;;;;;;;5.00;0.90;;;;;;;16.96;66.31;99272.09;5037906;28;20040;-66
2021/10/27 02:43:22;;;;;;;7.30;1.35;;;;;;;16.65;67.56;99252.72;5055205;28;20467;-67
2021/10/27 02:45:48;;;;;;;9.00;1.52;;;;;;;16.78;67.38;99260.13;5064122;28;20087;-66
2021/10/27 02:48:15;;;;;;;6.60;1.13;;;;;;;16.94;66.87;99257.97;5040389;28;20068;-66
2021/10/27 02:50:42;;;;;;;20.55;1.77;;;;;;;16.90;67.17;99264.28;5059745;28;20029;-67
2021/10/27 02:53:08;;;;;;;9.68;1.23;;;;;;;16.82;67.85;99254.91;5046887;28;20079;-67
2021/10/27 02:55:35;;;;;;;10.30;1.40;;;;;;;17.08;67.11;99246.38;5058111;28;20547;-67
2021/10/27 02:58:03;;;;;;;10.57;1.13;;;;;;;17.08;67.04;99240.91;5038146;28;20037;-67
2021/10/27 03:00:29;;;;;;;9.07;2.15;;;;;;;16.87;67.28;99241.22;5052651;28;20474;-67
2021/10/27 03:02:55;;;;;;;7.97;1.52;;;;;;;16.72;68.34;99234.13;5045886;28;20063;-66
2021/10/27 03:05:22;;;;;;;4.80;1.15;;;;;;;17.00;67.61;99241.59;5058047;28;20029;-67
2021/10/27 03:07:48;;;;;;;4.28;1.17;;;;;;;16.89;68.09;99233.59;5061423;28;20044;-67
2021/10/27 03:10:14;;;;;;;8.57;1.25;;;;;;;17.09;67.76;99247.97;5064108;28;20043;-67
2021/10/27 03:12:40;;;;;;;4.93;1.00;;;;;;;16.94;68.30;99249.00;5054484;28;20032;-67
2021/10/27 03:15:06;;;;;;;10.13;1.33;;;;;;;17.10;67.71;99250.38;5063333;28;20028;-67
2021/10/27 03:17:32;;;;;;;5.18;1.20;;;;;;;16.75;69.00;99249.00;5054391;28;20814;-66
2021/10/27 03:19:57;;;;;;;7.38;1.25;;;;;;;16.82;68.88;99246.75;5066942;28;20037;-67
2021/10/27 03:22:23;;;;;;;10.15;1.30;;;;;;;16.94;68.17;99232.69;5056760;28;20044;-67
2021/10/27 03:24:49;;;;;;;3.17;0.80;;;;;;;16.81;68.81;99243.22;5063789;28;20124;-67
2021/10/27 03:27:15;;;;;;;2.83;0.90;;;;;;;16.92;68.60;99256.66;5047357;28;20032;-67
2021/10/27 03:29:41;;;;;;;9.88;1.50;;;;;;;16.83;68.90;99254.59;5057527;28;20090;-67
2021/10/27 03:32:07;;;;;;;4.90;1.63;;;;;;;16.91;68.59;99253.13;5047556;28;20578;-67
2021/10/27 03:34:33;;;;;;;5.78;1.45;;;;;;;16.99;68.50;99256.31;5056973;28;20036;-67
2021/10/27 03:36:59;;;;;;;8.50;1.40;;;;;;;16.63;69.52;99253.00;5064407;28;20470;-67
2021/10/27 03:39:25;;;;;;;4.30;1.13;;;;;;;16.84;69.15;99252.69;5060982;28;20025;-67
2021/10/27 03:41:52;;;;;;;5.78;1.10;;;;;;;16.61;70.07;99247.03;5052232;28;20447;-67
2021/10/27 03:44:17;;;;;;;3.83;1.35;;;;;;;16.75;69.82;99251.72;5059908;28;20037;-67
2021/10/27 03:46:43;;;;;;;5.72;1.20;;;;;;;16.80;69.81;99251.69;5048063;28;20037;-67
2021/10/27 03:49:08;;;;;;;6.28;1.25;;;;;;;16.77;70.63;99244.09;5056954;28;20037;-67
2021/10/27 03:51:34;;;;;;;7.88;1.92;;;;;;;16.88;70.66;99251.00;5061027;28;20116;-67
2021/10/27 03:53:59;;;;;;;3.40;0.90;;;;;;;16.73;71.71;99251.22;5048891;28;20124;-67
2021/10/27 03:56:25;;;;;;;5.75;1.40;;;;;;;16.65;72.35;99242.63;5061397;28;20444;-67
2021/10/27 03:58:51;;;;;;;6.78;1.17;;;;;;;16.32;73.53;99250.72;5051283;28;20029;-67
2021/10/27 04:01:17;;;;;;;8.80;1.33;;;;;;;16.41;73.33;99245.44;5057889;28;20066;-67
2021/10/27 04:03:43;;;;;;;3.72;1.27;;;;;;;16.41;72.91;99240.00;5062114;28;20040;-67
2021/10/27 04:06:09;;;;;;;5.18;1.38;;;;;;;16.51;72.48;99249.91;5045156;28;20049;-67
2021/10/27 04:08:35;;;;;;;8.65;1.70;;;;;;;16.71;71.71;99253.44;5058309;28;20078;-67
2021/10/27 04:11:00;;;;;;;8.85;1.63;;;;;;;16.65;71.71;99245.34;5057164;28;20436;-66
2021/10/27 04:13:26;;;;;;;4.95;1.17;;;;;;;16.70;71.17;99236.31;5050387;28;20029;-66
2021/10/27 04:15:52;;;;;;;6.35;1.10;;;;;;;16.74;70.80;99234.63;5059779;28;20477;-67
2021/10/27 04:18:18;;;;;;;6.88;1.25;;;;;;;16.66;70.71;99214.34;5060096;28;20094;-67
2021/10/27 04:20:44;;;;;;;4.65;0.73;;;;;;;16.90;70.06;99228.94;5059756;28;20422;-67
2021/10/27 04:23:10;;;;;;;5.20;0.88;;;;;;;16.61;70.65;99229.94;5055993;28;20482;-67
2021/10/27 04:25:36;;;;;;;7.63;1.02;;;;;;;16.48;70.62;99235.03;5045798;28;20478;-67
2021/10/27 04:28:02;;;;;;;5.97;1.23;;;;;;;16.51;70.43;99245.31;5055396;28;20032;-67
2021/10/27 04:30:27;;;;;;;8.25;0.88;;;;;;;16.67;69.73;99253.22;5037965;28;20498;-67
2021/10/27 04:32:55;;;;;;;6.72;0.88;;;;;;;16.68;69.28;99261.06;5062197;28;20033;-67
2021/10/27 04:35:22;;;;;;;6.93;0.77;;;;;;;16.49;69.39;99254.84;5062313;28;20045;-66
2021/10/27 04:37:48;;;;;;;11.07;1.25;;;;;;;16.76;68.84;99261.50;5069118;28;20107;-67
2021/10/27 04:40:15;;;;;;;4.63;0.85;;;;;;;17.02;67.75;99259.22;5062258;28;20040;-66
2021/10/27 04:42:42;;;;;;;4.68;0.70;;;;;;;17.02;67.74;99239.38;5066303;28;20172;-67
2021/10/27 04:45:08;;;;;;;4.10;0.82;;;;;;;16.97;67.64;99243.81;5060493;28;20048;-67
2021/10/27 04:47:34;;;;;;;5.93;0.90;;;;;;;16.81;68.31;99237.78;5060155;28;20037;-67
2021/10/27 04:50:00;;;;;;;4.55;0.77;;;;;;;16.77;68.32;99242.19;5052176;28;20500;-67
2021/10/27 04:52:26;;;;;;;4.53;0.75;;;;;;;17.14;67.14;99247.06;5054258;28;20037;-67
2021/10/27 04:54:51;;;;;;;6.10;1.10;;;;;;;17.08;66.80;99246.38;5049983;28;20028;-67
2021/10/27 04:57:17;;;;;;;3.85;0.80;;;;;;;16.90;67.28;99245.25;5048344;28;20080;-67
2021/10/27 04:59:44;;;;;;;1.33;0.60;;;;;;;16.99;66.99;99248.16;5055679;28;20037;-67
2021/10/27 05:02:11;;;;;;;2.33;0.70;;;;;;;16.84;67.34;99239.09;5046155;28;20330;-67
2021/10/27 05:04:38;;;;;;;4.85;0.90;;;;;;;17.10;66.22;99244.94;5061065;28;20033;-67
2021/10/27 05:07:04;;;;;;;2.08;0.50;;;;;;;16.93;66.87;99244.66;5047029;28;20036;-67
2021/10/27 05:09:31;;;;;;;4.82;0.80;;;;;;;16.87;67.06;99243.94;5051124;28;20049;-67
2021/10/27 05:11:57;;;;;;;4.03;0.90;;;;;;;17.08;66.46;99246.38;5054861;28;20036;-67
2021/10/27 05:14:23;;;;;;;5.10;1.00;;;;;;;17.05;66.37;99239.59;5048784;28;20107;-67
2021/10/27 05:16:49;;;;;;;5.97;1.02;;;;;;;17.05;66.10;99257.84;5049780;28;20482;-67
2021/10/27 05:19:15;;;;;;;4.43;0.73;;;;;;;17.01;66.11;99273.94;5045249;28;20112;-67
2021/10/27 05:21:41;;;;;;;4.90;0.82;;;;;;;17.24;65.44;99269.47;5067182;28;20040;-69
2021/10/27 05:24:06;;;;;;;6.25;0.85;;;;;;;17.24;65.30;99263.22;5058104;28;20562;-68
2021/10/27 05:26:32;;;;;;;4.13;0.55;;;;;;;17.20;65.47;99265.75;5049708;28;20533;-68
2021/10/27 05:29:01;;;;;;;3.67;0.80;;;;;;;17.24;65.49;99265.94;5062645;28;20037;-68
2021/10/27 05:31:26;;;;;;;3.80;0.80;;;;;;;17.26;65.48;99261.81;5060988;28;20032;-69
2021/10/27 05:33:52;;;;;;;8.65;0.90;;;;;;;17.10;65.77;99268.63;5071249;28;20025;-68
2021/10/27 05:36:18;;;;;;;5.03;0.88;;;;;;;17.09;66.60;99267.81;5052029;28;20410;-68
2021/10/27 05:38:43;;;;;;;4.60;1.00;;;;;;;17.02;66.86;99263.88;5061135;28;20119;-68
2021/10/27 05:41:09;;;;;;;7.20;0.90;;;;;;;17.10;66.37;99255.81;5055612;28;20509;-69
2021/10/27 05:43:36;;;;;;;5.05;0.98;;;;;;;16.98;67.13;99269.09;5055478;28;20148;-68
2021/10/27 05:46:02;;;;;;;5.32;0.95;;;;;;;16.99;67.09;99265.25;5062225;28;20033;-69
2021/10/27 05:48:33;;;;;;;4.07;0.73;;;;;;;16.90;67.34;99262.41;5063701;28;20111;-69
2021/10/27 05:56:19;;;;;;;4.57;0.75;;;;;;;17.11;67.45;99246.56;5059949;28;20041;-68
2021/10/27 05:58:45;;;;;;;4.82;0.75;;;;;;;16.91;68.65;99242.25;5063699;28;20040;-68
2021/10/27 06:01:11;;;;;;;3.58;0.75;;;;;;;16.96;68.37;99250.31;5054857;28;20032;-68
2021/10/27 06:03:37;;;;;;;9.57;1.30;;;;;;;17.11;68.00;99238.41;5057766;28;20038;-69
2021/10/27 06:06:02;;;;;;;6.47;0.90;;;;;;;17.02;68.36;99242.13;5059046;28;20053;-68
2021/10/27 06:08:28;;;;;;;4.38;0.82;;;;;;;16.98;68.51;99236.44;5054332;28;20505;-68
2021/10/27 06:10:58;;;;;;;5.53;1.05;;;;;;;16.89;69.20;99238.19;5057801;28;20115;-68
2021/10/27 06:13:30;;;;;;;5.43;0.90;;;;;;;16.98;69.29;99228.28;5058260;28;20077;-70
2021/10/27 06:15:56;;;;;;;5.10;1.00;;;;;;;16.94;69.49;99235.41;5058920;28;20037;-70
2021/10/27 06:18:23;;;;;;;6.95;1.00;;;;;;;17.16;68.79;99236.69;5056579;28;20063;-68
2021/10/27 06:20:50;;;;;;;2.13;0.70;;;;;;;16.97;69.38;99229.38;5064548;28;20029;-68
2021/10/27 06:23:16;;;;;;;6.53;0.65;;;;;;;16.71;71.02;99231.69;5066251;28;20040;-68
2021/10/27 06:25:42;;;;;;;2.60;0.70;;;;;;;16.90;70.51;99227.03;5063392;28;20029;-67
2021/10/27 06:28:14;;;;;;;4.30;0.80;;;;;;;16.78;71.04;99222.06;5062730;28;20718;-67
2021/10/27 06:30:51;;;;;;;3.08;0.65;;;;;;;16.83;70.85;99226.63;5062961;28;20028;-66
2021/10/27 06:35:59;;;;;;;3.63;0.80;;;;;;;16.65;72.19;99236.41;5062236;28;20036;-67
2021/10/27 06:46:47;;;;;;;4.07;1.05;;;;;;;16.68;72.97;99246.69;5022478;28;20449;-67
2021/10/27 06:49:13;;;;;;;5.75;1.13;;;;;;;16.74;72.57;99234.63;5021707;28;20044;-67
2021/10/27 06:51:38;;;;;;;2.55;1.00;;;;;;;16.69;73.05;99227.34;5027048;28;20073;-67
2021/10/27 06:54:04;;;;;;;4.05;0.90;;;;;;;16.48;73.97;99220.59;5028674;28;20029;-67
2021/10/27 06:56:30;;;;;;;2.75;1.00;;;;;;;16.67;73.46;99226.81;5027087;28;20037;-67
2021/10/27 06:59:13;;;;;;;4.60;1.10;;;;;;;16.61;73.88;99228.00;5022589;28;20076;-67
2021/10/27 07:17:47;;;;;;;5.32;1.50;;;;;;;16.78;73.44;99245.69;5030761;28;20041;-66
2021/10/27 07:20:13;;;;;;;4.50;1.42;;;;;;;16.75;73.68;99255.28;5056026;28;20036;-66
2021/10/27 07:22:38;;;;;;;8.00;1.63;;;;;;;16.76;73.51;99253.34;5057198;28;20040;-66
2021/10/27 07:25:04;;;;;;;2.67;1.20;;;;;;;16.83;73.60;99259.25;5046527;28;20055;-66
2021/10/27 07:27:31;;;;;;;3.33;1.40;;;;;;;16.65;74.65;99248.06;5065013;28;20115;-67
2021/10/27 07:29:57;;;;;;;10.43;1.90;;;;;;;16.74;74.28;99258.28;5056331;28;20040;-67
2021/10/27 07:32:25;;;;;;;4.70;1.50;;;;;;;16.69;74.40;99253.75;5045628;28;20025;-67
2021/10/27 07:34:57;;;;;;;5.68;1.77;;;;;;;16.37;74.93;99250.66;5049691;28;20202;-68
2021/10/27 07:42:59;;;;;;;2.95;1.23;;;;;;;16.68;73.90;99268.44;5051680;28;20123;-68
2021/10/27 07:45:26;;;;;;;8.13;1.55;;;;;;;16.79;73.27;99260.94;5057531;28;20043;-68
2021/10/27 07:47:54;;;;;;;5.03;1.35;;;;;;;16.67;73.29;99250.50;5064185;28;20043;-68
2021/10/27 07:50:25;;;;;;;6.70;1.17;;;;;;;17.01;72.23;99249.44;5047731;28;20767;-67
2021/10/27 07:52:51;;;;;;;3.05;0.95;;;;;;;16.96;72.27;99253.06;5051683;28;20154;-67
2021/10/27 07:55:17;;;;;;;4.30;1.20;;;;;;;16.82;72.56;99258.44;5051525;28;20672;-68
2021/10/27 07:57:44;;;;;;;3.28;1.33;;;;;;;17.13;71.54;99259.88;5058858;28;20098;-69
2021/10/27 08:00:11;;;;;;;7.07;1.55;;;;;;;17.17;71.30;99255.44;5059502;28;20482;-69
2021/10/27 08:02:37;;;;;;;4.25;1.20;;;;;;;17.20;71.00;99262.19;5051010;28;20270;-68
2021/10/27 08:05:04;;;;;;;6.18;1.20;;;;;;;17.09;71.30;99258.84;5065240;28;20454;-68
2021/10/27 08:07:29;;;;;;;4.30;1.00;;;;;;;17.33;70.56;99255.19;5052856;28;20045;-67
2021/10/27 08:09:55;;;;;;;6.88;1.50;;;;;;;17.24;70.95;99266.75;5058659;28;20052;-67
2021/10/27 08:12:21;;;;;;;5.45;1.30;;;;;;;17.07;71.37;99266.50;5058137;28;20040;-67
2021/10/27 08:14:47;;;;;;;4.78;1.05;;;;;;;16.99;72.14;99273.41;5057452;28;20036;-68
2021/10/27 08:17:13;;;;;;;6.55;1.30;;;;;;;17.05;72.44;99271.44;5054392;28;20036;-67
2021/10/27 08:19:39;;;;;;;6.40;1.63;;;;;;;17.17;71.93;99271.78;5044918;28;20363;-67
2021/10/27 08:22:07;;;;;;;4.55;1.15;;;;;;;17.32;71.32;99259.00;5047367;28;20051;-67
2021/10/27 08:24:33;;;;;;;6.13;1.23;;;;;;;17.13;71.92;99259.88;5053270;28;20405;-67
2021/10/27 08:27:07;;;;;;;3.78;1.08;;;;;;;17.35;71.08;99247.53;5056341;28;20545;-67
2021/10/27 08:29:38;;;;;;;2.53;1.00;;;;;;;17.44;70.50;99261.22;5042929;28;20612;-67
2021/10/27 08:32:53;;;;;;;2.45;1.13;;;;;;;17.55;69.96;99259.94;5047900;28;20033;-67
2021/10/27 08:34:52;;;;;;;8.73;1.10;;;;;;;17.56;69.78;99264.28;5042187;28;20077;-67
2021/10/27 08:37:18;;;;;;;7.10;1.33;;;;;;;17.44;69.92;99255.78;5046890;28;20075;-68
2021/10/27 08:39:44;;;;;;;2.85;0.93;;;;;;;17.66;69.25;99269.53;5044897;28;20094;-67
2021/10/27 08:42:12;;;;;;;7.50;1.08;;;;;;;17.75;68.84;99263.41;5059113;28;20032;-67
2021/10/27 08:44:39;;;;;;;7.90;1.00;;;;;;;17.82;68.65;99269.25;5052512;28;20093;-66
2021/10/27 08:47:06;;;;;;;5.97;1.40;;;;;;;17.56;68.87;99269.72;5042770;28;20051;-66
2021/10/27 08:49:32;;;;;;;4.63;1.10;;;;;;;17.82;68.54;99275.50;5057782;28;20102;-67
2021/10/27 08:51:59;;;;;;;4.20;1.00;;;;;;;17.83;67.81;99279.03;5045752;28;20105;-68
2021/10/27 08:54:27;;;;;;;5.60;1.20;;;;;;;17.81;67.66;99282.06;5064083;28;20041;-66
2021/10/27 08:56:56;;;;;;;3.72;1.20;;;;;;;17.80;67.60;99280.44;5041962;28;20035;-68
2021/10/27 08:59:31;;;;;;;3.13;0.90;;;;;;;17.84;67.51;99281.44;5050743;28;20029;-67
2021/10/27 09:04:44;;;;;;;3.63;0.73;;;;;;;17.67;67.68;99282.06;5042548;28;20130;-68
2021/10/27 09:10:34;;;;;;;7.35;1.00;;;;;;;17.95;66.92;99286.69;5039975;28;20056;-68
2021/10/27 09:55:26;;;;;;;4.68;1.60;;;;;;;18.26;65.95;99256.09;5051653;28;20056;-68
2021/10/27 10:06:09;;;;;;;5.32;2.40;;;;;;;18.67;64.28;99249.75;5047847;28;20056;-67
2021/10/27 10:08:55;;;;;;;9.07;3.10;;;;;;;18.74;63.86;99254.75;5047730;28;20063;-68
2021/10/27 10:11:40;;;;;;;6.00;1.65;;;;;;;18.86;63.33;99256.94;5054550;28;20167;-68
2021/10/27 10:14:24;;;;;;;5.50;2.47;;;;;;;18.76;63.70;99249.00;5044882;28;20106;-67
2021/10/27 10:17:09;;;;;;;9.65;1.90;;;;;;;19.02;63.24;99260.94;5048425;28;20101;-67
2021/10/27 10:19:54;;;;;;;5.22;0.90;;;;;;;18.91;63.14;99261.47;5056438;28;20567;-67
2021/10/27 10:22:45;;;;;;;4.30;1.55;;;;;;;18.58;63.92;99259.78;5047939;28;20154;-66
2021/10/27 10:25:32;;;;;;;5.78;1.40;;;;;;;18.91;63.24;99247.81;5049610;28;20516;-66
2021/10/27 10:28:19;;;;;;;7.15;1.45;;;;;;;18.81;63.43;99236.03;5065926;28;20044;-67
2021/10/27 10:31:04;;;;;;;4.72;0.82;;;;;;;18.90;63.10;99241.56;5055514;28;20455;-65
2021/10/27 10:33:49;;;;;;;6.57;1.70;;;;;;;18.94;63.14;99241.75;5040677;28;20078;-68
2021/10/27 10:36:40;;;;;;;6.00;1.77;;;;;;;19.35;61.92;99234.47;5048114;28;20429;-67
2021/10/27 10:39:53;;;;;;;6.53;2.00;;;;;;;19.02;62.44;99239.09;5047101;28;20063;-68
2021/10/27 10:42:56;;;;;;;4.97;1.65;;;;;;;19.05;62.61;99231.41;5059641;28;20090;-68
2021/10/27 11:01:19;;;;;;;3.42;1.20;;;;;;;19.07;62.33;99242.81;5047299;28;20101;-68
2021/10/27 11:26:02;;;;;;;4.38;1.48;;;;;;;19.27;62.16;99236.84;5051835;28;20074;-67
2021/10/27 11:37:50;;;;;;;4.07;1.42;;;;;;;19.65;60.41;99215.63;5049549;28;20051;-67
2021/10/27 11:40:39;;;;;;;7.15;1.27;;;;;;;19.43;60.80;99217.31;5042879;28;20558;-67
2021/10/27 11:43:16;;;;;;;3.00;0.70;;;;;;;19.70;60.40;99218.22;5049109;28;20028;-67
2021/10/27 11:48:23;;;;;;;3.10;1.20;;;;;;;19.52;60.85;99225.56;5054306;28;20489;-67
2021/10/27 11:50:50;;;;;;;6.75;1.45;;;;;;;19.39;61.19;99219.06;5051938;28;20085;-67
2021/10/27 11:53:25;;;;;;;6.57;1.48;;;;;;;19.58;60.32;99224.28;5055275;28;20052;-68
2021/10/27 11:55:51;;;;;;;10.25;1.45;;;;;;;18.98;61.71;99224.47;5050176;28;20041;-67
2021/10/27 11:58:18;;;;;;;2.92;1.23;;;;;;;19.09;61.71;99216.03;5054352;28;20024;-67
2021/10/27 12:00:48;;;;;;;4.50;1.00;;;;;;;19.43;60.68;99226.28;5058222;28;20045;-70
2021/10/27 12:03:19;;;;;;;5.38;1.35;;;;;;;19.42;60.71;99238.34;5051507;28;20044;-68
2021/10/27 12:06:02;;;;;;;4.25;1.30;;;;;;;19.46;60.68;99238.53;5037950;28;20319;-68
2021/10/27 12:16:57;;;;;;;3.60;1.15;;;;;;;19.05;62.38;99248.59;5053568;28;20025;-66
2021/10/27 12:19:28;;;;;;;8.27;1.20;;;;;;;19.06;62.12;99263.06;5049716;28;20063;-66
2021/10/27 12:22:00;;;;;;;8.82;1.20;;;;;;;18.81;62.82;99248.88;5044756;28;20060;-67
2021/10/27 12:24:29;;;;;;;3.50;1.25;;;;;;;19.05;62.02;99248.59;5042788;28;20094;-66
2021/10/27 12:27:02;;;;;;;4.47;1.30;;;;;;;18.80;62.57;99234.44;5049507;28;20033;-67
2021/10/27 12:29:33;;;;;;;10.13;1.20;;;;;;;18.67;62.65;99227.13;5060904;28;20037;-67
2021/10/27 12:32:05;;;;;;;3.28;1.00;;;;;;;19.11;61.79;99236.41;5047666;28;20032;-68
2021/10/27 12:34:33;;;;;;;3.60;1.10;;;;;;;19.29;61.16;99226.41;5054382;28;20639;-67
2021/10/27 12:37:39;;;;;;;8.60;1.05;;;;;;;19.36;61.01;99230.63;5050635;28;20041;-68
2021/10/27 12:40:09;;;;;;;4.50;0.95;;;;;;;19.07;61.47;99227.25;5040680;28;20866;-67
2021/10/27 12:42:35;;;;;;;8.20;1.55;;;;;;;19.25;60.88;99222.69;5045661;28;20416;-67
2021/10/27 12:45:03;;;;;;;9.77;0.90;;;;;;;19.30;60.72;99203.44;5059467;28;20035;-68
2021/10/27 12:47:31;;;;;;;5.32;1.25;;;;;;;19.54;60.05;99218.66;5055375;28;20064;-67
2021/10/27 12:50:10;;;;;;;7.18;1.15;;;;;;;19.40;60.62;99220.69;5052201;28;20041;-67
2021/10/27 12:52:40;;;;;;;5.25;1.38;;;;;;;19.47;60.05;99233.88;5054495;28;20059;-67
2021/10/27 12:55:13;;;;;;;9.07;1.30;;;;;;;19.42;60.22;99218.44;5077269;28;20036;-67
2021/10/27 12:57:55;;;;;;;8.45;1.20;;;;;;;19.61;59.65;99226.41;5053617;28;20502;-67
2021/10/27 13:00:43;;;;;;;7.97;0.80;;;;;;;18.92;60.97;99214.78;5051899;28;20051;-67
2021/10/27 13:29:42;;;;;;;7.75;1.20;;;;;;;19.31;59.24;99191.41;4999251;28;20479;-66
2021/10/27 13:32:14;;;;;;;5.32;1.25;;;;;;;19.36;59.18;99189.66;4984335;28;20045;-67
2021/10/27 13:34:40;;;;;;;8.48;1.88;;;;;;;19.12;59.85;99188.91;5003368;28;20483;-66
2021/10/27 13:37:07;;;;;;;9.15;1.50;;;;;;;19.03;60.06;99182.59;4996777;28;20068;-66
2021/10/27 13:39:34;;;;;;;4.78;1.25;;;;;;;19.13;60.01;99184.25;4989645;28;20046;-66
2021/10/27 13:42:05;;;;;;;10.07;1.83;;;;;;;19.07;59.85;99182.78;5001791;28;20074;-68
2021/10/27 13:44:36;;;;;;;4.15;1.40;;;;;;;19.47;58.89;99177.34;4999461;28;20038;-67
2021/10/27 14:08:31;;;;;;;7.78;1.55;;;;;;;19.27;57.45;99151.38;4991803;28;20076;-66
2021/10/27 14:11:12;;;;;;;6.03;1.75;;;;;;;19.27;57.52;99146.75;4983110;28;20137;-67
2021/10/27 14:59:18;;;;;;;6.07;1.35;;;;;;;18.69;57.65;99111.16;5057574;28;20032;-67
2021/10/27 15:21:06;;;;;;;15.27;1.88;;;;;;;18.63;58.75;99101.47;5057185;28;20474;-67
2021/10/27 15:50:51;;;;;;;9.60;1.80;;;;;;;18.81;58.47;99087.94;4932586;29;20488;-68
2021/10/27 15:53:18;;;;;;;8.88;1.50;;;;;;;19.02;58.24;99097.22;4931871;28;20082;-68
2021/10/27 15:55:44;;;;;;;5.72;1.20;;;;;;;18.74;59.12;99096.56;4935016;29;20054;-67
2021/10/27 15:58:10;;;;;;;5.68;1.52;;;;;;;18.83;58.67;99088.44;4932024;28;20126;-68
2021/10/27 16:00:54;;;;;;;4.97;1.52;;;;;;;18.78;58.76;99085.84;4932847;28;20078;-67
2021/10/27 16:03:38;;;;;;;5.28;1.30;;;;;;;18.67;58.85;99085.28;4936129;28;20822;-67
2021/10/27 16:06:24;;;;;;;5.13;1.35;;;;;;;18.66;59.23;99089.13;4937388;28;20065;-67
2021/10/27 16:09:10;;;;;;;5.90;1.38;;;;;;;18.67;59.31;99093.47;4940767;28;20065;-67
2021/10/27 16:11:54;;;;;;;8.57;1.50;;;;;;;18.82;59.02;99097.72;4991190;28;20060;-67
2021/10/27 16:14:22;;;;;;;5.88;1.42;;;;;;;18.53;59.66;99090.81;4985019;28;20054;-67
2021/10/27 16:16:50;;;;;;;6.35;1.40;;;;;;;18.48;59.68;99082.75;5013426;28;20049;-67
2021/10/27 16:19:16;;;;;;;5.07;1.23;;;;;;;18.63;59.62;99090.56;5054832;28;20037;-66
2021/10/27 16:21:42;;;;;;;4.00;1.20;;;;;;;18.56;60.15;99095.66;5059009;28;20037;-67
2021/10/27 16:24:08;;;;;;;4.20;1.33;;;;;;;18.47;59.94;99095.59;5057020;28;20718;-66
2021/10/27 16:26:34;;;;;;;4.00;1.15;;;;;;;18.24;61.11;99078.44;5057879;28;20473;-66
2021/10/27 16:29:00;;;;;;;5.03;1.10;;;;;;;18.49;60.42;99095.28;5061692;28;20056;-67
2021/10/27 16:31:26;;;;;;;8.25;1.60;;;;;;;18.62;59.87;99096.31;5046007;28;20086;-67
2021/10/27 16:33:53;;;;;;;5.47;1.50;;;;;;;18.65;59.80;99087.53;5047135;28;20043;-67
2021/10/27 16:36:22;;;;;;;9.93;2.10;;;;;;;18.52;60.19;99092.75;5049272;28;20699;-67